Time;durP1;ratioP1;P1;durP2;ratioP2;P2;SDS_P1;SDS_P2;PMS_P1;PMS_P2;Temp;Humidity;BMP_temperature;BMP_pressure;BME280_temperature;BME280_humidity;BME280_pressure;Samples;Min_cycle;Max_cycle;Signal;HPM_P1;HPM_P2
2023/05/21 00:01:47;;;;;;;;;;;;;;;20.16;68.86;96959.05;627843;226;67235;-59
2023/05/21 00:04:14;;;;;;;;;;;;;;;20.16;68.80;96952.89;627788;226;64746;-59
2023/05/21 00:06:42;;;;;;;;;;;;;;;20.16;68.95;96952.89;627881;226;62876;-59
2023/05/21 00:09:11;;;;;;;;;;;;;;;20.14;68.80;96945.16;625929;226;66754;-59
2023/05/21 00:11:39;;;;;;;;;;;;;;;20.15;69.07;96941.42;627829;226;67105;-59
2023/05/21 00:14:06;;;;;;;;;;;;;;;20.15;69.26;96941.42;627799;226;63881;-59
2023/05/21 00:16:34;;;;;;;;;;;;;;;20.14;68.68;96939.83;627799;226;67293;-59
2023/05/21 00:19:02;;;;;;;;;;;;;;;20.15;69.49;96932.62;627840;226;66926;-59
2023/05/21 00:21:30;;;;;;;;;;;;;;;20.14;69.13;96931.83;627801;226;64891;-59
2023/05/21 00:23:58;;;;;;;;;;;;;;;20.14;69.66;96931.83;627848;226;64930;-59
2023/05/21 00:26:26;;;;;;;;;;;;;;;20.13;68.78;96924.90;627827;226;64859;-59
2023/05/21 00:28:54;;;;;;;;;;;;;;;20.14;69.69;96921.16;627838;226;65819;-59
2023/05/21 00:31:21;;;;;;;;;;;;;;;20.13;68.97;96919.56;627831;226;67730;-59
2023/05/21 00:33:49;;;;;;;;;;;;;;;20.14;68.77;96929.16;627849;226;67537;-60
2023/05/21 00:36:17;;;;;;;;;;;;;;;20.14;68.88;96923.82;627837;226;64981;-59
2023/05/21 00:38:44;;;;;;;;;;;;;;;20.15;69.77;96929.95;627836;226;64403;-59
2023/05/21 00:41:12;;;;;;;;;;;;;;;20.13;69.24;96932.91;627849;226;66737;-59
2023/05/21 00:43:40;;;;;;;;;;;;;;;20.13;68.66;96932.08;627815;226;65057;-60
2023/05/21 00:46:10;;;;;;;;;;;;;;;20.13;68.71;96930.23;627827;226;64135;-59
2023/05/21 00:48:39;;;;;;;;;;;;;;;20.13;69.52;96932.91;627848;226;66767;-59
2023/05/21 00:51:06;;;;;;;;;;;;;;;20.14;69.52;96939.03;627862;226;65106;-59
2023/05/21 00:53:34;;;;;;;;;;;;;;;20.13;69.52;96930.23;627848;226;66710;-60
2023/05/21 00:56:02;;;;;;;;;;;;;;;20.13;69.60;96924.08;627871;226;66412;-60
2023/05/21 00:58:32;;;;;;;;;;;;;;;20.12;69.80;96917.95;627829;226;63692;-59
2023/05/21 01:01:05;;;;;;;;;;;;;;;20.12;68.73;96919.82;627833;225;66717;-59
2023/05/21 01:03:36;;;;;;;;;;;;;;;20.12;68.77;96920.61;627511;225;67153;-59
2023/05/21 01:05:59;;;;;;;;;;;;;;;20.12;69.18;96909.15;627647;225;64896;-59
2023/05/21 01:08:27;;;;;;;;;;;;;;;20.12;69.53;96911.81;627848;226;64481;-59
2023/05/21 01:10:56;;;;;;;;;;;;;;;20.12;68.87;96906.48;627787;226;66778;-59
2023/05/21 01:13:25;;;;;;;;;;;;;;;20.10;68.92;96901.40;627516;226;62958;-59
2023/05/21 01:15:53;;;;;;;;;;;;;;;20.12;69.67;96896.60;627182;226;66957;-59
2023/05/21 01:18:22;;;;;;;;;;;;;;;20.11;68.83;96896.89;627164;226;67595;-59
2023/05/21 01:20:51;;;;;;;;;;;;;;;20.11;68.54;96889.67;627201;226;65138;-59
2023/05/21 01:23:19;;;;;;;;;;;;;;;20.11;68.77;96892.34;627156;226;64411;-59
2023/05/21 01:25:47;;;;;;;;;;;;;;;20.09;68.01;96886.47;627161;226;66759;-59
2023/05/21 01:28:15;;;;;;;;;;;;;;;20.11;69.14;96884.34;627166;226;62983;-59
2023/05/21 01:30:43;;;;;;;;;;;;;;;20.11;68.17;96887.01;627186;226;65732;-59
2023/05/21 01:33:18;;;;;;;;;;;;;;;20.10;68.22;96890.73;627164;226;66748;-60
2023/05/21 01:35:53;;;;;;;;;;;;;;;20.10;68.52;96885.39;627164;226;66090;-59
2023/05/21 01:38:28;;;;;;;;;;;;;;;20.10;68.90;96885.39;627060;226;66548;-58
2023/05/21 01:40:57;;;;;;;;;;;;;;;20.10;68.80;96880.05;627108;225;64455;-58
2023/05/21 01:43:26;;;;;;;;;;;;;;;20.09;68.64;96872.34;627131;226;65189;-58
2023/05/21 01:45:55;;;;;;;;;;;;;;;20.09;69.23;96881.13;627218;226;64380;-58
2023/05/21 01:48:23;;;;;;;;;;;;;;;20.09;69.31;96875.80;627127;226;64588;-59
2023/05/21 01:50:54;;;;;;;;;;;;;;;20.09;68.35;96877.67;627186;226;65784;-59
2023/05/21 01:53:21;;;;;;;;;;;;;;;20.09;69.12;96872.34;627159;226;67207;-59
2023/05/21 01:55:49;;;;;;;;;;;;;;;20.09;69.49;96870.47;627170;226;67576;-59
2023/05/21 01:58:17;;;;;;;;;;;;;;;20.09;69.91;96867.80;627208;226;62729;-59
2023/05/21 02:00:45;;;;;;;;;;;;;;;20.08;68.90;96860.87;627163;226;65539;-59
2023/05/21 02:03:18;;;;;;;;;;;;;;;20.10;69.01;96873.92;627160;226;66816;-59
2023/05/21 02:05:43;;;;;;;;;;;;;;;20.09;70.82;96867.80;622402;226;65067;-59
2023/05/21 02:08:11;;;;;;;;;;;;;;;20.11;71.84;96880.88;625600;226;64549;-59
2023/05/21 02:10:39;;;;;;;;;;;;;;;20.09;71.48;96865.12;627171;226;66310;-59
2023/05/21 02:13:06;;;;;;;;;;;;;;;20.08;70.38;96860.87;627390;226;65043;-59
2023/05/21 02:15:34;;;;;;;;;;;;;;;20.09;71.75;96861.66;627807;226;64641;-59
2023/05/21 02:18:02;;;;;;;;;;;;;;;20.09;71.40;96867.80;627820;226;64909;-59
2023/05/21 02:20:30;;;;;;;;;;;;;;;20.08;71.31;96871.54;627808;226;63802;-59
2023/05/21 02:22:57;;;;;;;;;;;;;;;20.08;71.06;96860.87;627852;226;64288;-59
2023/05/21 02:25:25;;;;;;;;;;;;;;;20.08;70.99;96860.87;627811;226;66882;-59
2023/05/21 02:27:55;;;;;;;;;;;;;;;20.08;71.59;96860.87;627813;226;64943;-59
2023/05/21 02:30:22;;;;;;;;;;;;;;;20.07;71.48;96864.59;627804;226;66843;-59
2023/05/21 02:32:50;;;;;;;;;;;;;;;20.08;71.51;96854.71;627823;226;67676;-59
2023/05/21 02:35:17;;;;;;;;;;;;;;;20.07;70.61;96861.92;627866;226;64821;-59
2023/05/21 02:37:45;;;;;;;;;;;;;;;20.07;70.49;96858.45;627827;226;66610;-59
2023/05/21 02:40:12;;;;;;;;;;;;;;;20.06;70.41;96857.66;627838;226;64282;-59
2023/05/21 02:42:40;;;;;;;;;;;;;;;20.07;71.67;96859.25;627784;226;65719;-59
2023/05/21 02:45:13;;;;;;;;;;;;;;;20.07;70.48;96863.80;627821;226;64639;-59
2023/05/21 02:47:42;;;;;;;;;;;;;;;20.06;69.38;96867.54;627836;226;66681;-59
2023/05/21 02:50:09;;;;;;;;;;;;;;;20.07;71.49;96863.80;625841;226;62734;-59
2023/05/21 02:52:40;;;;;;;;;;;;;;;20.07;71.07;96861.92;627036;226;45254;-59
2023/05/21 02:55:08;;;;;;;;;;;;;;;20.06;71.58;96859.54;627281;226;64440;-59
2023/05/21 02:57:35;;;;;;;;;;;;;;;20.06;71.23;96868.34;627818;226;64975;-59
2023/05/21 03:00:04;;;;;;;;;;;;;;;20.05;70.64;96866.75;627853;226;64367;-59
2023/05/21 03:02:32;;;;;;;;;;;;;;;20.05;69.40;96871.26;627808;226;64806;-59
2023/05/21 03:05:00;;;;;;;;;;;;;;;20.05;69.18;96872.08;627820;226;62600;-59
2023/05/21 03:07:27;;;;;;;;;;;;;;;20.04;68.99;96875.80;627791;226;66741;-59
2023/05/21 03:09:55;;;;;;;;;;;;;;;20.06;70.87;96878.21;627819;226;66710;-59
2023/05/21 03:12:22;;;;;;;;;;;;;;;20.04;70.16;96875.80;627774;226;62663;-59
2023/05/21 03:14:50;;;;;;;;;;;;;;;20.05;70.02;96877.41;627188;226;66888;-59
2023/05/21 03:17:19;;;;;;;;;;;;;;;20.05;70.21;96879.26;627185;226;64232;-59
2023/05/21 03:19:47;;;;;;;;;;;;;;;20.05;70.73;96873.92;627163;226;62671;-59
2023/05/21 03:22:15;;;;;;;;;;;;;;;20.05;70.25;96869.41;627165;226;66821;-59
2023/05/21 03:24:44;;;;;;;;;;;;;;;20.03;69.62;96858.20;627230;226;66212;-59
2023/05/21 03:27:11;;;;;;;;;;;;;;;20.04;70.09;96869.67;627125;226;65012;-59
2023/05/21 03:29:39;;;;;;;;;;;;;;;20.06;71.27;96871.00;627217;226;66472;-59
2023/05/21 03:32:07;;;;;;;;;;;;;;;20.05;71.49;96882.75;627197;226;64379;-59
2023/05/21 03:34:35;;;;;;;;;;;;;;;20.06;71.15;96886.22;626468;226;65222;-59
2023/05/21 03:37:03;;;;;;;;;;;;;;;20.05;70.87;96882.75;627037;226;68001;-59
2023/05/21 03:39:31;;;;;;;;;;;;;;;20.03;68.70;96879.55;627201;226;63973;-59
2023/05/21 03:41:59;;;;;;;;;;;;;;;20.04;69.76;96865.12;627208;226;65666;-59
2023/05/21 03:44:39;;;;;;;;;;;;;;;20.04;70.54;96859.00;627125;226;45267;-59
2023/05/21 03:47:18;;;;;;;;;;;;;;;20.03;70.62;96863.53;626719;226;48505;-59
2023/05/21 03:49:45;;;;;;;;;;;;;;;20.05;70.72;96860.59;627238;226;65431;-59
2023/05/21 03:52:13;;;;;;;;;;;;;;;20.02;70.64;96856.58;627183;226;66426;-59
2023/05/21 03:54:41;;;;;;;;;;;;;;;20.02;69.96;96859.25;627198;226;64441;-59
2023/05/21 03:57:08;;;;;;;;;;;;;;;20.03;70.56;96857.41;625180;226;66139;-59
2023/05/21 03:59:36;;;;;;;;;;;;;;;20.03;71.24;96868.87;626549;226;67717;-60
2023/05/21 04:02:05;;;;;;;;;;;;;;;20.02;69.31;96866.46;626676;226;64593;-59
2023/05/21 04:04:32;;;;;;;;;;;;;;;20.02;69.57;96861.92;627170;226;64923;-59
2023/05/21 04:07:00;;;;;;;;;;;;;;;20.03;69.92;96865.41;627208;226;64198;-59
2023/05/21 04:09:27;;;;;;;;;;;;;;;20.02;68.95;96869.92;627187;226;64600;-59
2023/05/21 04:11:55;;;;;;;;;;;;;;;20.04;71.56;96864.33;627166;226;65274;-59
2023/05/21 04:14:23;;;;;;;;;;;;;;;20.02;69.47;96866.46;627208;226;66744;-59
2023/05/21 04:16:51;;;;;;;;;;;;;;;20.02;69.17;96867.25;627190;226;67507;-59
2023/05/21 04:19:20;;;;;;;;;;;;;;;20.03;70.67;96868.08;627180;226;62889;-59
2023/05/21 04:21:48;;;;;;;;;;;;;;;20.02;70.57;96864.59;627190;226;65622;-59
2023/05/21 04:24:15;;;;;;;;;;;;;;;20.02;69.66;96863.79;627178;226;67544;-59
2023/05/21 04:26:46;;;;;;;;;;;;;;;20.02;70.08;96861.92;627079;226;42351;-59
2023/05/21 04:29:16;;;;;;;;;;;;;;;20.01;69.46;96865.66;627169;226;64623;-59
2023/05/21 04:31:43;;;;;;;;;;;;;;;20.03;70.44;96862.74;627195;226;64288;-59
2023/05/21 04:34:16;;;;;;;;;;;;;;;20.01;69.72;96863.00;627217;226;42820;-59
2023/05/21 04:36:42;;;;;;;;;;;;;;;20.02;70.04;96863.79;627098;226;66908;-59
2023/05/21 04:39:11;;;;;;;;;;;;;;;20.02;71.33;96866.46;625173;226;66834;-59
2023/05/21 04:41:39;;;;;;;;;;;;;;;20.02;70.61;96874.46;626491;226;63010;-59
2023/05/21 04:44:08;;;;;;;;;;;;;;;20.00;70.48;96866.75;626485;226;67611;-59
2023/05/21 04:46:36;;;;;;;;;;;;;;;20.00;69.79;96864.08;626966;226;66020;-59
2023/05/21 04:49:04;;;;;;;;;;;;;;;20.01;70.74;96860.33;627124;226;65053;-59
2023/05/21 04:51:36;;;;;;;;;;;;;;;20.01;70.87;96860.33;626917;226;48050;-59
2023/05/21 04:54:03;;;;;;;;;;;;;;;20.01;70.79;96857.66;627118;226;64975;-59
2023/05/21 04:56:31;;;;;;;;;;;;;;;20.01;70.94;96859.54;627106;226;66032;-59
2023/05/21 04:58:59;;;;;;;;;;;;;;;20.01;70.59;96862.20;627111;226;67199;-59
2023/05/21 05:01:28;;;;;;;;;;;;;;;20.01;71.20;96859.54;627137;226;67832;-60
2023/05/21 05:03:55;;;;;;;;;;;;;;;20.01;71.22;96862.20;627183;226;65190;-60
2023/05/21 05:06:24;;;;;;;;;;;;;;;20.00;70.36;96856.08;627099;226;66799;-59
2023/05/21 05:08:52;;;;;;;;;;;;;;;20.00;70.09;96865.92;627096;226;67035;-59
2023/05/21 05:11:21;;;;;;;;;;;;;;;19.99;70.49;96862.45;627083;226;65061;-59
2023/05/21 05:13:50;;;;;;;;;;;;;;;20.00;70.41;96863.25;627080;226;68022;-59
2023/05/21 05:16:23;;;;;;;;;;;;;;;20.00;70.50;96864.08;627174;226;64646;-59
2023/05/21 05:18:49;;;;;;;;;;;;;;;20.00;70.03;96869.41;626924;226;63005;-60
2023/05/21 05:21:16;;;;;;;;;;;;;;;20.00;70.22;96866.75;627127;226;64887;-60
2023/05/21 05:23:44;;;;;;;;;;;;;;;20.00;70.46;96860.59;627108;226;67077;-59
2023/05/21 05:26:12;;;;;;;;;;;;;;;19.99;70.29;96862.45;627096;226;64930;-59
2023/05/21 05:28:40;;;;;;;;;;;;;;;19.99;70.34;96867.80;627151;226;64555;-59
2023/05/21 05:31:08;;;;;;;;;;;;;;;20.00;70.42;96868.59;627160;226;64857;-59
2023/05/21 05:33:35;;;;;;;;;;;;;;;19.99;69.26;96867.00;627108;226;65090;-59
2023/05/21 05:36:03;;;;;;;;;;;;;;;19.98;70.31;96863.53;627101;226;68069;-59
2023/05/21 05:38:31;;;;;;;;;;;;;;;19.99;70.50;96873.12;627124;226;64842;-59
2023/05/21 05:40:59;;;;;;;;;;;;;;;19.98;70.90;96863.53;627122;226;65016;-60
2023/05/21 05:43:26;;;;;;;;;;;;;;;19.95;67.82;96861.41;627162;226;67316;-59
2023/05/21 05:45:55;;;;;;;;;;;;;;;19.97;68.03;96859.28;621960;226;66613;-59
2023/05/21 05:48:22;;;;;;;;;;;;;;;19.98;68.09;96860.08;627091;226;64855;-59
2023/05/21 05:50:53;;;;;;;;;;;;;;;19.97;68.14;96859.28;627118;226;64649;-59
2023/05/21 05:53:19;;;;;;;;;;;;;;;19.97;68.01;96864.62;627072;226;64653;-59
2023/05/21 05:55:47;;;;;;;;;;;;;;;19.98;67.48;96868.87;627152;226;64988;-59
2023/05/21 05:58:14;;;;;;;;;;;;;;;19.97;67.70;96864.62;621913;226;68453;-59
2023/05/21 06:00:47;;;;;;;;;;;;;;;19.98;67.65;96866.20;626998;226;45885;-60
2023/05/21 06:03:14;;;;;;;;;;;;;;;19.97;67.83;96867.28;627104;226;62837;-59
2023/05/21 06:05:42;;;;;;;;;;;;;;;19.98;68.13;96868.87;627052;226;65762;-59
2023/05/21 06:08:10;;;;;;;;;;;;;;;19.98;68.41;96862.74;625151;226;68012;-59
2023/05/21 06:10:38;;;;;;;;;;;;;;;19.95;65.28;96872.08;626941;226;65107;-59
2023/05/21 06:13:06;;;;;;;;;;;;;;;19.96;69.23;96869.13;626584;226;67216;-60
2023/05/21 06:15:34;;;;;;;;;;;;;;;19.96;69.06;96868.33;627092;225;65112;-59
2023/05/21 06:18:01;;;;;;;;;;;;;;;19.96;68.12;96860.33;626774;226;65699;-59
2023/05/21 06:20:29;;;;;;;;;;;;;;;19.98;69.63;96870.75;626799;226;66866;-60
2023/05/21 06:22:57;;;;;;;;;;;;;;;19.97;69.86;96864.62;622045;226;67626;-59
2023/05/21 06:25:25;;;;;;;;;;;;;;;19.98;70.92;96868.87;627042;226;65718;-59
2023/05/21 06:27:53;;;;;;;;;;;;;;;19.98;70.98;96860.87;627102;226;65099;-59
2023/05/21 06:30:22;;;;;;;;;;;;;;;19.98;70.40;96860.87;627096;226;45810;-60
2023/05/21 06:32:49;;;;;;;;;;;;;;;19.98;70.98;96857.41;627090;226;65114;-60
2023/05/21 06:35:17;;;;;;;;;;;;;;;19.98;71.77;96855.53;627163;226;66960;-59
2023/05/21 06:37:45;;;;;;;;;;;;;;;19.97;70.64;96848.61;627077;226;66972;-59
2023/05/21 06:40:12;;;;;;;;;;;;;;;19.98;70.57;96846.73;627085;226;63794;-59
2023/05/21 06:42:40;;;;;;;;;;;;;;;19.99;71.19;96851.00;627145;226;67241;-59
2023/05/21 06:45:25;;;;;;;;;;;;;;;19.99;71.62;96843.78;627186;226;40452;-58
2023/05/21 06:47:55;;;;;;;;;;;;;;;19.98;71.13;96847.53;627032;226;42375;-59
2023/05/21 06:50:23;;;;;;;;;;;;;;;19.99;70.78;96845.66;627104;226;67732;-58
2023/05/21 06:52:50;;;;;;;;;;;;;;;19.98;70.23;96838.73;627084;226;64917;-58
2023/05/21 06:55:18;;;;;;;;;;;;;;;19.98;71.08;96839.53;627109;226;65055;-58
2023/05/21 06:58:04;;;;;;;;;;;;;;;19.98;69.60;96838.73;627204;226;37752;-59
2023/05/21 07:00:31;;;;;;;;;;;;;;;19.97;69.54;96837.95;627080;226;66856;-58
2023/05/21 07:02:59;;;;;;;;;;;;;;;19.98;69.28;96838.73;627110;226;64972;-58
2023/05/21 07:05:27;;;;;;;;;;;;;;;19.98;70.31;96844.87;627088;226;64731;-59
2023/05/21 07:07:54;;;;;;;;;;;;;;;19.99;71.46;96841.12;627121;226;65640;-59
2023/05/21 07:10:22;;;;;;;;;;;;;;;19.99;71.39;96841.12;627078;226;63816;-58
2023/05/21 07:12:49;;;;;;;;;;;;;;;19.99;71.22;96838.45;627057;226;67360;-59
2023/05/21 07:15:17;;;;;;;;;;;;;;;20.00;71.56;96841.91;627057;226;67216;-59
2023/05/21 07:17:45;;;;;;;;;;;;;;;19.99;71.57;96837.66;627151;226;62668;-58
2023/05/21 07:20:13;;;;;;;;;;;;;;;19.98;71.27;96831.53;627067;226;64946;-58
2023/05/21 07:22:43;;;;;;;;;;;;;;;20.00;70.95;96836.58;627102;226;65705;-61
2023/05/21 07:25:11;;;;;;;;;;;;;;;19.98;70.83;96826.20;627067;226;62382;-61
2023/05/21 07:27:39;;;;;;;;;;;;;;;19.98;70.64;96823.53;627076;226;65845;-61
2023/05/21 07:30:07;;;;;;;;;;;;;;;19.99;70.85;96822.45;627146;226;66723;-61
2023/05/21 07:32:35;;;;;;;;;;;;;;;19.98;70.11;96823.53;627133;226;65001;-61
2023/05/21 07:35:02;;;;;;;;;;;;;;;19.99;69.68;96829.66;627129;226;64709;-59
2023/05/21 07:37:30;;;;;;;;;;;;;;;20.00;70.46;96824.06;627104;226;67262;-58
2023/05/21 07:39:58;;;;;;;;;;;;;;;20.00;70.17;96825.91;627091;226;66153;-58
2023/05/21 07:42:26;;;;;;;;;;;;;;;20.00;70.66;96816.06;627143;226;67804;-58
2023/05/21 07:44:54;;;;;;;;;;;;;;;20.00;70.22;96810.73;627086;226;66821;-58
2023/05/21 07:47:23;;;;;;;;;;;;;;;20.00;69.83;96807.23;627106;226;62493;-59
2023/05/21 07:49:50;;;;;;;;;;;;;;;20.00;69.75;96805.39;627129;226;67304;-58
2023/05/21 07:52:18;;;;;;;;;;;;;;;20.02;69.53;96805.11;627095;226;66616;-58
2023/05/21 07:54:46;;;;;;;;;;;;;;;20.01;69.53;96801.65;627137;226;65052;-58
2023/05/21 07:57:13;;;;;;;;;;;;;;;20.01;70.38;96795.52;627103;226;65708;-58
2023/05/21 07:59:45;;;;;;;;;;;;;;;20.00;70.67;96800.06;626270;226;46807;-59
2023/05/21 08:02:13;;;;;;;;;;;;;;;20.01;70.46;96801.65;627094;226;64907;-60
2023/05/21 08:04:41;;;;;;;;;;;;;;;20.00;70.31;96794.73;627080;226;67357;-60
2023/05/21 08:07:09;;;;;;;;;;;;;;;20.00;70.59;96797.39;625467;226;67476;-59
2023/05/21 08:09:37;;;;;;;;;;;;;;;20.01;70.65;96792.85;627081;226;65883;-59
2023/05/21 08:12:05;;;;;;;;;;;;;;;19.99;70.06;96798.44;627124;226;64541;-59
2023/05/21 08:14:33;;;;;;;;;;;;;;;20.01;69.67;96795.52;627690;226;66820;-60
2023/05/21 08:17:00;;;;;;;;;;;;;;;20.00;69.83;96792.06;627805;226;63007;-60
2023/05/21 08:19:28;;;;;;;;;;;;;;;20.00;69.70;96792.06;627769;226;67802;-59
2023/05/21 08:21:56;;;;;;;;;;;;;;;20.01;69.51;96798.19;627847;226;64524;-59
2023/05/21 08:24:25;;;;;;;;;;;;;;;20.00;69.26;96797.39;627760;226;65602;-60
2023/05/21 08:26:53;;;;;;;;;;;;;;;20.01;69.37;96795.52;627741;226;67194;-59
2023/05/21 08:29:20;;;;;;;;;;;;;;;20.01;69.43;96798.98;627787;226;67212;-60
2023/05/21 08:31:48;;;;;;;;;;;;;;;20.00;69.53;96794.73;627773;226;66022;-59
2023/05/21 08:34:17;;;;;;;;;;;;;;;20.00;69.61;96784.06;627812;226;67559;-59
2023/05/21 08:36:48;;;;;;;;;;;;;;;20.00;69.52;96789.39;627662;225;43982;-59
2023/05/21 08:39:17;;;;;;;;;;;;;;;20.01;69.45;96784.85;616854;225;46409;-59
2023/05/21 08:41:48;;;;;;;;;;;;;;;20.02;69.58;96797.11;627774;226;67694;-59
2023/05/21 08:44:15;;;;;;;;;;;;;;;20.01;69.19;96795.52;627728;226;66989;-59
2023/05/21 08:46:44;;;;;;;;;;;;;;;20.01;69.46;96790.98;627800;226;65105;-59
2023/05/21 08:49:16;;;;;;;;;;;;;;;20.01;69.35;96796.31;627812;226;67404;-59
2023/05/21 08:51:45;;;;;;;;;;;;;;;20.01;69.66;96796.31;627769;226;65062;-59
2023/05/21 08:54:13;;;;;;;;;;;;;;;20.01;69.74;96785.64;627754;226;65034;-59
2023/05/21 08:56:44;;;;;;;;;;;;;;;20.01;69.61;96787.52;627785;226;65208;-59
2023/05/21 08:59:11;;;;;;;;;;;;;;;20.00;69.33;96781.39;625794;226;70874;-59
2023/05/21 09:01:41;;;;;;;;;;;;;;;20.00;69.63;96784.06;627678;226;62935;-59
2023/05/21 09:04:19;;;;;;;;;;;;;;;20.01;69.85;96788.31;627648;225;46979;-59
2023/05/21 09:06:47;;;;;;;;;;;;;;;20.00;69.61;96786.72;627779;226;65065;-60
2023/05/21 09:09:20;;;;;;;;;;;;;;;20.00;69.37;96784.06;622606;226;68731;-59
2023/05/21 09:11:49;;;;;;;;;;;;;;;20.01;69.77;96784.85;627582;225;68600;-59
2023/05/21 09:14:17;;;;;;;;;;;;;;;20.01;69.81;96785.64;627203;226;66882;-59
2023/05/21 09:16:55;;;;;;;;;;;;;;;20.00;69.57;96778.72;626382;226;46122;-59
2023/05/21 09:19:23;;;;;;;;;;;;;;;20.00;69.60;96781.39;627099;226;64574;-59
2023/05/21 09:21:54;;;;;;;;;;;;;;;20.00;69.46;96783.23;627129;226;67009;-59
2023/05/21 09:24:23;;;;;;;;;;;;;;;20.00;69.36;96776.05;627119;226;65441;-60
2023/05/21 09:26:51;;;;;;;;;;;;;;;20.00;69.55;96789.39;627109;226;64855;-60
2023/05/21 09:29:18;;;;;;;;;;;;;;;20.01;69.80;96785.64;627162;226;66877;-60
2023/05/21 09:31:46;;;;;;;;;;;;;;;20.01;69.95;96784.85;627104;226;64993;-60
2023/05/21 09:34:14;;;;;;;;;;;;;;;20.00;69.46;96780.56;627112;226;67017;-60
2023/05/21 09:36:46;;;;;;;;;;;;;;;20.00;69.42;96778.72;627141;226;67560;-60
2023/05/21 09:39:15;;;;;;;;;;;;;;;20.01;69.44;96771.52;627107;226;63786;-60
2023/05/21 09:41:43;;;;;;;;;;;;;;;20.00;69.08;96770.72;626683;225;67908;-60
2023/05/21 09:44:12;;;;;;;;;;;;;;;20.01;69.09;96774.18;625931;225;64991;-60
2023/05/21 09:46:40;;;;;;;;;;;;;;;20.01;69.49;96780.31;626987;226;63790;-60
2023/05/21 09:49:09;;;;;;;;;;;;;;;20.00;69.62;96777.90;627005;226;67781;-60
2023/05/21 09:51:38;;;;;;;;;;;;;;;20.01;69.34;96784.85;626545;226;66922;-60
2023/05/21 09:54:06;;;;;;;;;;;;;;;20.00;69.87;96781.39;627036;226;62974;-60
2023/05/21 09:56:34;;;;;;;;;;;;;;;20.00;69.32;96786.72;627043;226;67171;-60
2023/05/21 09:59:07;;;;;;;;;;;;;;;20.00;69.41;96773.39;627040;226;64948;-60
2023/05/21 10:01:36;;;;;;;;;;;;;;;20.01;69.45;96774.18;626953;225;62987;-60
2023/05/21 10:04:05;;;;;;;;;;;;;;;20.00;69.15;96773.39;627000;226;66901;-60
2023/05/21 10:06:34;;;;;;;;;;;;;;;20.00;69.71;96773.39;626877;226;67043;-60
2023/05/21 10:09:03;;;;;;;;;;;;;;;20.00;69.79;96768.05;626979;226;65212;-60
2023/05/21 10:11:31;;;;;;;;;;;;;;;20.01;69.89;96774.18;627138;226;65133;-60
2023/05/21 10:14:03;;;;;;;;;;;;;;;20.00;69.51;96778.72;627058;226;67246;-60
2023/05/21 10:16:32;;;;;;;;;;;;;;;20.00;70.24;96773.39;627039;225;62806;-60
2023/05/21 10:19:00;;;;;;;;;;;;;;;19.99;69.92;96774.44;627121;226;67092;-60
2023/05/21 10:21:27;;;;;;;;;;;;;;;19.99;69.60;96774.44;627157;226;66780;-60
2023/05/21 10:23:58;;;;;;;;;;;;;;;19.98;70.13;96770.19;627095;225;65032;-60
2023/05/21 10:26:27;;;;;;;;;;;;;;;19.99;70.60;96779.77;627131;226;64769;-60
2023/05/21 10:29:01;;;;;;;;;;;;;;;19.99;70.22;96769.10;626842;225;67282;-60
2023/05/21 10:31:31;;;;;;;;;;;;;;;19.99;69.96;96771.77;626853;225;63579;-60
2023/05/21 10:33:55;;;;;;;;;;;;;;;19.99;70.32;96774.44;626721;225;65256;-60
2023/05/21 10:36:27;;;;;;;;;;;;;;;19.99;70.14;96770.97;627147;225;64808;-60
2023/05/21 10:38:56;;;;;;;;;;;;;;;19.99;69.99;96777.10;626996;225;65207;-60
2023/05/21 10:41:25;;;;;;;;;;;;;;;19.99;69.98;96774.44;626949;226;67217;-60
2023/05/21 10:43:57;;;;;;;;;;;;;;;19.99;70.29;96781.64;627133;225;66944;-60
2023/05/21 10:46:43;;;;;;;;;;;;;;;19.99;69.90;96771.77;626917;225;65011;-60
2023/05/21 10:49:12;;;;;;;;;;;;;;;19.99;69.75;96773.64;626927;226;67406;-60
2023/05/21 10:51:57;;;;;;;;;;;;;;;19.98;69.21;96772.84;626900;226;66611;-60
2023/05/21 10:54:27;;;;;;;;;;;;;;;19.98;68.10;96772.84;627104;225;63104;-60
2023/05/21 10:57:08;;;;;;;;;;;;;;;19.99;68.82;96771.77;627134;226;67257;-60
2023/05/21 10:59:37;;;;;;;;;;;;;;;19.98;68.07;96770.19;626999;226;65344;-60
2023/05/21 11:02:06;;;;;;;;;;;;;;;19.98;68.44;96775.52;626969;225;62908;-60
2023/05/21 11:04:38;;;;;;;;;;;;;;;19.99;68.12;96776.31;627083;226;67342;-60
2023/05/21 11:07:02;;;;;;;;;;;;;;;19.99;68.55;96768.31;626930;226;64617;-60
2023/05/21 11:09:30;;;;;;;;;;;;;;;20.00;68.18;96772.56;627113;225;65083;-60
2023/05/21 11:11:58;;;;;;;;;;;;;;;19.99;68.22;96770.97;627032;226;67100;-60
2023/05/21 11:14:43;;;;;;;;;;;;;;;19.99;67.82;96768.31;626944;226;65016;-60
2023/05/21 11:17:12;;;;;;;;;;;;;;;19.99;68.34;96765.64;626561;226;64740;-59
2023/05/21 11:19:41;;;;;;;;;;;;;;;19.99;68.61;96771.77;627069;226;66494;-60
2023/05/21 11:22:24;;;;;;;;;;;;;;;19.99;68.02;96773.64;624862;226;67175;-59
2023/05/21 11:24:53;;;;;;;;;;;;;;;19.99;68.44;96770.97;626785;226;65079;-59
2023/05/21 11:27:34;;;;;;;;;;;;;;;19.99;67.89;96768.31;626999;226;65278;-59
2023/05/21 11:30:08;;;;;;;;;;;;;;;19.98;68.00;96756.84;627094;226;67065;-59
2023/05/21 11:32:39;;;;;;;;;;;;;;;19.99;67.83;96757.64;627013;226;65090;-59
2023/05/21 11:35:07;;;;;;;;;;;;;;;19.99;67.85;96761.10;627023;225;67231;-59
2023/05/21 11:37:36;;;;;;;;;;;;;;;19.99;68.28;96776.31;627099;226;64982;-59
2023/05/21 11:40:18;;;;;;;;;;;;;;;19.98;67.86;96764.84;627093;226;65073;-59
2023/05/21 11:42:47;;;;;;;;;;;;;;;19.98;67.77;96764.84;626872;226;64520;-59
2023/05/21 11:45:16;;;;;;;;;;;;;;;19.98;68.36;96764.84;626968;226;64555;-59
2023/05/21 11:47:44;;;;;;;;;;;;;;;19.98;67.67;96753.38;627144;226;62688;-59
2023/05/21 11:50:15;;;;;;;;;;;;;;;19.98;68.31;96743.52;627133;226;66757;-59
2023/05/21 11:52:44;;;;;;;;;;;;;;;19.99;68.01;96738.97;627118;226;67616;-60
2023/05/21 11:55:14;;;;;;;;;;;;;;;19.98;68.19;96732.05;627118;226;65274;-59
2023/05/21 11:57:41;;;;;;;;;;;;;;;19.97;67.23;96736.59;626989;225;64461;-59
2023/05/21 12:00:12;;;;;;;;;;;;;;;19.99;68.31;96737.09;627136;226;66604;-60
2023/05/21 12:02:40;;;;;;;;;;;;;;;19.98;67.45;96746.17;627147;226;37043;-59
2023/05/21 12:05:08;;;;;;;;;;;;;;;19.98;68.45;96743.52;626908;225;66736;-59
2023/05/21 12:07:37;;;;;;;;;;;;;;;19.98;68.05;96750.72;627106;226;66860;-60
2023/05/21 12:10:05;;;;;;;;;;;;;;;19.98;68.16;96740.05;627008;226;65184;-59
2023/05/21 12:12:33;;;;;;;;;;;;;;;19.98;67.84;96737.38;627064;226;65131;-59
2023/05/21 12:15:01;;;;;;;;;;;;;;;19.98;67.93;96727.50;627122;226;65410;-59
2023/05/21 12:17:30;;;;;;;;;;;;;;;19.98;68.07;96718.71;627035;226;63689;-59
2023/05/21 12:19:58;;;;;;;;;;;;;;;19.98;68.40;96729.38;627082;226;67037;-59
2023/05/21 12:22:26;;;;;;;;;;;;;;;19.97;67.96;96704.58;627176;226;66903;-59
2023/05/21 12:24:56;;;;;;;;;;;;;;;19.97;67.75;96704.58;627016;226;65109;-59
2023/05/21 12:27:24;;;;;;;;;;;;;;;19.98;68.12;96703.50;626937;226;67270;-60
2023/05/21 12:29:52;;;;;;;;;;;;;;;19.97;67.83;96704.58;626979;226;64691;-59
2023/05/21 12:32:21;;;;;;;;;;;;;;;19.98;68.61;96714.17;627148;225;65045;-59
2023/05/21 12:34:49;;;;;;;;;;;;;;;19.98;68.02;96714.17;627090;226;64528;-59
2023/05/21 12:37:18;;;;;;;;;;;;;;;19.98;67.94;96706.17;627188;225;66831;-60
2023/05/21 12:39:47;;;;;;;;;;;;;;;19.98;67.24;96705.38;627014;226;64997;-59
2023/05/21 12:42:14;;;;;;;;;;;;;;;19.98;67.74;96711.50;627114;226;65283;-59
2023/05/21 12:44:45;;;;;;;;;;;;;;;19.99;67.75;96698.96;627041;226;64816;-59
2023/05/21 12:47:14;;;;;;;;;;;;;;;19.98;67.59;96692.83;627150;225;64925;-60
2023/05/21 12:49:50;;;;;;;;;;;;;;;19.98;67.42;96714.17;626988;226;65160;-60
2023/05/21 12:52:16;;;;;;;;;;;;;;;19.99;67.33;96701.63;626890;225;67315;-60
2023/05/21 12:54:45;;;;;;;;;;;;;;;19.99;67.21;96697.09;626896;226;64808;-60
2023/05/21 12:57:16;;;;;;;;;;;;;;;19.98;67.18;96690.16;626849;226;68742;-60